createdAt,value
2018-09-24T00:02:01.330Z,100.00
2018-09-24T00:04:31.040Z,100.00
2018-09-24T00:07:00.598Z,100.00
2018-09-24T00:09:34.011Z,100.00
2018-09-24T00:12:03.845Z,100.00
2018-09-24T00:14:33.790Z,100.00
2018-09-24T00:17:03.214Z,100.00
2018-09-24T00:19:33.131Z,100.00
2018-09-24T00:22:02.680Z,100.00
2018-09-24T00:24:32.476Z,100.00
2018-09-24T00:27:02.266Z,100.00
2018-09-24T00:29:32.021Z,100.00
2018-09-24T00:32:01.507Z,100.00
2018-09-24T00:34:30.726Z,100.00
2018-09-24T00:37:00.079Z,100.00
2018-09-24T00:39:29.532Z,100.00
2018-09-24T00:41:58.780Z,100.00
2018-09-24T00:44:28.647Z,100.00
2018-09-24T00:46:58.133Z,100.00
2018-09-24T00:49:27.749Z,100.00
2018-09-24T00:51:57.739Z,100.00
2018-09-24T00:54:27.252Z,100.00
2018-09-24T00:56:58.339Z,100.00
2018-09-24T00:59:27.690Z,100.00
2018-09-24T01:01:57.446Z,100.00
2018-09-24T01:04:27.303Z,100.00
2018-09-24T01:06:57.066Z,100.00
2018-09-24T01:09:26.744Z,100.00
2018-09-24T01:11:56.474Z,100.00
2018-09-24T01:14:25.767Z,100.00
2018-09-24T01:16:55.266Z,100.00
2018-09-24T01:19:24.756Z,100.00
2018-09-24T01:21:55.134Z,100.00
2018-09-24T01:24:24.571Z,100.00
2018-09-24T01:26:54.574Z,100.00
2018-09-24T01:29:23.799Z,100.00
2018-09-24T01:31:53.715Z,100.00
2018-09-24T01:34:23.223Z,100.00
2018-09-24T01:36:52.725Z,100.00
2018-09-24T01:39:22.670Z,100.00
2018-09-24T01:41:52.342Z,100.00
2018-09-24T01:44:21.835Z,100.00
2018-09-24T01:46:51.346Z,100.00
2018-09-24T01:49:21.459Z,100.00
2018-09-24T01:51:50.819Z,100.00
2018-09-24T01:54:21.187Z,100.00
2018-09-24T01:56:50.859Z,100.00
2018-09-24T01:59:20.335Z,100.00
2018-09-24T02:01:49.822Z,100.00
2018-09-24T02:04:19.323Z,100.00
2018-09-24T02:06:49.280Z,100.00
2018-09-24T02:09:18.735Z,100.00
2018-09-24T02:11:48.054Z,100.00
2018-09-24T02:14:17.998Z,100.00
2018-09-24T02:16:47.739Z,100.00
2018-09-24T02:19:17.173Z,100.00
2018-09-24T02:21:47.006Z,100.00
2018-09-24T02:24:16.399Z,100.00
2018-09-24T02:26:45.908Z,100.00
2018-09-24T02:29:15.374Z,100.00
2018-09-24T02:31:45.230Z,100.00
2018-09-24T02:34:14.470Z,100.00
2018-09-24T02:36:43.779Z,100.00
2018-09-24T02:39:13.504Z,100.00
2018-09-24T02:41:42.934Z,100.00
2018-09-24T02:44:12.403Z,100.00
2018-09-24T02:46:43.296Z,100.00
2018-09-24T02:49:12.858Z,100.00
2018-09-24T02:51:42.910Z,100.00
2018-09-24T02:54:12.265Z,100.00
2018-09-24T02:56:47.171Z,100.00
2018-09-24T02:59:16.916Z,100.00
2018-09-24T03:01:46.175Z,100.00
2018-09-24T03:04:16.003Z,100.00
2018-09-24T03:06:45.343Z,100.00
2018-09-24T03:09:17.011Z,100.00
2018-09-24T03:11:47.764Z,100.00
2018-09-24T03:14:23.941Z,100.00
2018-09-24T03:16:54.294Z,100.00
2018-09-24T03:19:23.943Z,100.00
2018-09-24T03:21:53.627Z,100.00
2018-09-24T03:24:23.366Z,100.00
2018-09-24T03:26:53.451Z,100.00
2018-09-24T03:29:25.561Z,100.00
2018-09-24T03:31:54.925Z,100.00
2018-09-24T03:34:25.337Z,100.00
2018-09-24T03:36:54.746Z,100.00
2018-09-24T03:39:24.309Z,100.00
2018-09-24T03:41:53.792Z,100.00
2018-09-24T03:44:23.878Z,100.00
2018-09-24T03:46:53.383Z,100.00
2018-09-24T03:49:22.791Z,100.00
2018-09-24T03:51:52.389Z,100.00
2018-09-24T03:54:21.915Z,100.00
2018-09-24T03:56:52.271Z,100.00
2018-09-24T03:59:21.718Z,100.00
2018-09-24T04:01:51.275Z,100.00
2018-09-24T04:04:25.882Z,100.00
2018-09-24T04:07:00.779Z,100.00
2018-09-24T04:09:35.583Z,100.00
2018-09-24T04:12:10.243Z,100.00
2018-09-24T04:14:45.775Z,100.00
2018-09-24T04:17:20.532Z,100.00
2018-09-24T04:19:54.882Z,100.00
2018-09-24T04:22:29.668Z,100.00
2018-09-24T04:25:04.431Z,100.00
2018-09-24T04:27:43.126Z,100.00
2018-09-24T04:30:17.848Z,100.00
2018-09-24T04:32:52.683Z,100.00
2018-09-24T04:35:27.492Z,100.00
2018-09-24T04:38:02.304Z,100.00
2018-09-24T04:40:37.351Z,100.00
2018-09-24T04:43:12.531Z,100.00
2018-09-24T04:45:47.439Z,100.00
2018-09-24T04:48:22.413Z,100.00
2018-09-24T04:50:56.744Z,100.00
2018-09-24T04:53:31.314Z,100.00
2018-09-24T04:56:05.983Z,100.00
2018-09-24T04:58:41.146Z,100.00
2018-09-24T05:01:15.630Z,100.00
2018-09-24T05:03:50.138Z,100.00
2018-09-24T05:06:24.638Z,100.00
2018-09-24T05:08:59.491Z,100.00
2018-09-24T05:11:34.074Z,100.00
2018-09-24T05:14:09.215Z,100.00
2018-09-24T05:16:43.755Z,100.00
2018-09-24T05:19:18.567Z,100.00
2018-09-24T05:21:53.448Z,100.00
2018-09-24T05:24:28.042Z,100.00
2018-09-24T05:27:03.030Z,100.00
2018-09-24T05:29:37.792Z,100.00
2018-09-24T05:32:12.810Z,100.00
2018-09-24T05:34:47.342Z,100.00
2018-09-24T05:37:22.175Z,100.00
2018-09-24T05:39:57.398Z,100.00
2018-09-24T05:42:32.162Z,100.00
2018-09-24T05:45:06.710Z,100.00
2018-09-24T05:47:41.623Z,100.00
2018-09-24T05:50:16.007Z,100.00
2018-09-24T05:52:50.556Z,100.00
2018-09-24T05:55:25.388Z,100.00
2018-09-24T05:58:00.102Z,100.00
2018-09-24T06:00:34.911Z,100.00
2018-09-24T06:03:09.478Z,100.00
2018-09-24T06:05:44.310Z,100.00
2018-09-24T06:08:18.883Z,100.00
2018-09-24T06:10:53.700Z,100.00
2018-09-24T06:13:28.262Z,100.00
2018-09-24T06:16:02.975Z,100.00
2018-09-24T06:18:37.766Z,100.00
2018-09-24T06:21:12.977Z,100.00
2018-09-24T06:23:47.898Z,100.00
2018-09-24T06:26:22.331Z,100.00
2018-09-24T06:28:56.624Z,100.00
2018-09-24T06:31:31.232Z,100.00
2018-09-24T06:34:06.270Z,100.00
2018-09-24T06:36:40.888Z,100.00
2018-09-24T06:39:15.507Z,100.00
2018-09-24T06:41:50.054Z,100.00
2018-09-24T06:44:24.743Z,100.00
2018-09-24T06:46:59.300Z,100.00
2018-09-24T06:49:34.151Z,100.00
2018-09-24T06:52:08.889Z,100.00
2018-09-24T06:54:43.802Z,100.00
2018-09-24T06:57:18.770Z,100.00
2018-09-24T06:59:54.075Z,100.00
2018-09-24T07:02:28.767Z,100.00
2018-09-24T07:05:03.739Z,100.00
2018-09-24T07:07:38.586Z,100.00
2018-09-24T07:10:13.479Z,100.00
2018-09-24T07:12:47.979Z,100.00
2018-09-24T07:15:22.513Z,100.00
2018-09-24T07:17:57.294Z,100.00
2018-09-24T07:20:31.956Z,100.00
2018-09-24T07:23:06.498Z,100.00
2018-09-24T07:25:41.118Z,100.00
2018-09-24T07:28:15.689Z,100.00
2018-09-24T07:30:50.236Z,100.00
2018-09-24T07:33:24.880Z,100.00
2018-09-24T07:35:59.402Z,100.00
2018-09-24T07:38:33.840Z,100.00
2018-09-24T07:41:08.244Z,98.87
2018-09-24T07:43:42.819Z,99.21
2018-09-24T07:46:17.369Z,98.89
2018-09-24T07:48:51.943Z,99.92
2018-09-24T07:51:26.842Z,98.50
2018-09-24T07:54:01.080Z,98.06
2018-09-24T07:56:35.634Z,96.82
2018-09-24T07:59:10.461Z,96.28
2018-09-24T08:01:45.276Z,95.58
2018-09-24T08:04:20.057Z,92.37
2018-09-24T08:06:55.330Z,94.11
2018-09-24T08:09:30.001Z,93.40
2018-09-24T08:12:04.711Z,93.40
2018-09-24T08:14:39.199Z,93.53
2018-09-24T08:17:13.862Z,94.05
2018-09-24T08:19:48.238Z,91.49
2018-09-24T08:22:23.079Z,88.63
2018-09-24T08:24:57.635Z,87.53
2018-09-24T08:27:32.143Z,82.92
2018-09-24T08:30:06.942Z,81.15
2018-09-24T08:32:41.794Z,81.56
2018-09-24T08:35:16.609Z,79.55
2018-09-24T08:37:51.314Z,81.44
2018-09-24T08:40:25.884Z,81.50
2018-09-24T08:43:00.652Z,83.00
2018-09-24T08:45:36.124Z,84.01
2018-09-24T08:48:11.369Z,85.47
2018-09-24T08:50:46.985Z,85.56
2018-09-24T08:53:21.933Z,84.65
2018-09-24T08:55:56.547Z,83.50
2018-09-24T08:58:31.111Z,83.67
2018-09-24T09:01:06.010Z,83.55
2018-09-24T09:03:40.832Z,82.59
2018-09-24T09:06:15.584Z,85.31
2018-09-24T09:08:50.441Z,83.83
2018-09-24T09:11:25.410Z,82.57
2018-09-24T09:14:00.293Z,84.19
2018-09-24T09:16:35.603Z,82.54
2018-09-24T09:19:10.482Z,81.20
2018-09-24T09:21:44.995Z,76.08
2018-09-24T09:24:19.515Z,77.34
2018-09-24T09:26:54.106Z,77.54
2018-09-24T09:29:28.697Z,75.48
2018-09-24T09:32:03.408Z,74.29
2018-09-24T09:34:37.841Z,76.67
2018-09-24T09:37:12.582Z,71.24
2018-09-24T09:39:47.276Z,74.42
2018-09-24T09:42:21.819Z,68.87
2018-09-24T09:44:56.745Z,71.30
2018-09-24T09:47:31.313Z,71.56
2018-09-24T09:50:05.971Z,73.46
2018-09-24T09:52:40.695Z,74.17
2018-09-24T09:55:15.714Z,72.67
2018-09-24T09:57:50.514Z,71.20
2018-09-24T10:00:25.535Z,67.04
2018-09-24T10:03:00.116Z,62.72
2018-09-24T10:05:35.151Z,59.08
2018-09-24T10:08:09.803Z,59.70
2018-09-24T10:10:44.398Z,63.21
2018-09-24T10:13:19.868Z,66.90
2018-09-24T10:15:54.521Z,68.51
2018-09-24T10:18:29.251Z,67.64
2018-09-24T10:21:03.974Z,70.05
2018-09-24T10:23:38.803Z,68.88
2018-09-24T10:26:13.866Z,70.18
2018-09-24T10:28:48.938Z,72.21
2018-09-24T10:31:23.682Z,75.52
2018-09-24T10:33:58.375Z,73.34
2018-09-24T10:36:33.399Z,77.21
2018-09-24T10:39:08.027Z,75.61
2018-09-24T10:41:42.598Z,77.06
2018-09-24T10:44:17.664Z,77.65
2018-09-24T10:46:52.528Z,76.93
2018-09-24T10:49:27.147Z,75.86
2018-09-24T10:52:01.765Z,74.47
2018-09-24T10:54:36.844Z,74.73
2018-09-24T10:57:18.543Z,74.61
2018-09-24T10:59:53.230Z,68.05
2018-09-24T11:02:27.753Z,60.06
2018-09-24T11:05:02.988Z,56.33
2018-09-24T11:07:37.779Z,54.27
2018-09-24T11:10:12.921Z,51.79
2018-09-24T11:12:48.074Z,52.38
2018-09-24T11:15:22.556Z,56.32
2018-09-24T11:17:57.757Z,51.74
2018-09-24T11:20:32.258Z,54.55
2018-09-24T11:23:07.582Z,59.30
2018-09-24T11:25:42.533Z,62.73
2018-09-24T11:28:17.754Z,61.30
2018-09-24T11:30:52.747Z,59.14
2018-09-24T11:33:27.432Z,59.18
2018-09-24T11:36:02.466Z,60.46
2018-09-24T11:38:36.962Z,64.81
2018-09-24T11:41:11.800Z,66.69
2018-09-24T11:43:46.652Z,65.56
2018-09-24T11:46:21.207Z,63.95
2018-09-24T11:48:55.802Z,68.07
2018-09-24T11:51:30.501Z,64.71
2018-09-24T11:54:05.766Z,62.26
2018-09-24T11:56:40.335Z,55.21
2018-09-24T11:59:15.320Z,54.86
2018-09-24T12:01:49.858Z,50.00
2018-09-24T12:04:24.803Z,49.18
2018-09-24T12:06:59.619Z,48.54
2018-09-24T12:09:34.335Z,49.83
2018-09-24T12:12:08.859Z,47.16
2018-09-24T12:14:43.863Z,49.31
2018-09-24T12:17:18.659Z,52.22
2018-09-24T12:19:53.712Z,53.80
2018-09-24T12:22:28.449Z,51.43
2018-09-24T12:25:03.348Z,57.42
2018-09-24T12:27:38.149Z,56.33
2018-09-24T12:30:13.008Z,57.06
2018-09-24T12:32:47.605Z,58.17
2018-09-24T12:35:22.351Z,60.13
2018-09-24T12:37:56.979Z,61.02
2018-09-24T12:40:32.208Z,68.59
2018-09-24T12:43:06.984Z,71.50
2018-09-24T12:45:41.979Z,71.26
2018-09-24T12:48:17.344Z,70.02
2018-09-24T12:50:52.371Z,71.31
2018-09-24T12:53:27.181Z,69.58
2018-09-24T12:56:02.266Z,68.26
2018-09-24T12:58:36.849Z,69.03
2018-09-24T13:01:11.852Z,66.46
2018-09-24T13:03:46.584Z,66.01
2018-09-24T13:06:21.651Z,64.77
2018-09-24T13:08:56.386Z,64.10
2018-09-24T13:11:31.070Z,62.54
2018-09-24T13:14:05.978Z,64.72
2018-09-24T13:16:40.520Z,60.74
2018-09-24T13:19:15.114Z,60.38
2018-09-24T13:21:49.728Z,60.77
2018-09-24T13:24:24.614Z,63.89
2018-09-24T13:26:59.395Z,60.12
2018-09-24T13:29:34.301Z,61.69
2018-09-24T13:32:09.241Z,62.94
2018-09-24T13:34:43.998Z,63.93
2018-09-24T13:37:18.470Z,64.86
2018-09-24T13:39:53.004Z,67.96
2018-09-24T13:42:28.403Z,64.11
2018-09-24T13:45:03.346Z,65.76
2018-09-24T13:47:38.002Z,64.81
2018-09-24T13:50:12.825Z,66.11
2018-09-24T13:52:47.577Z,67.67
2018-09-24T13:55:22.082Z,68.19
2018-09-24T13:57:56.755Z,70.99
2018-09-24T14:00:31.397Z,74.63
2018-09-24T14:03:06.083Z,76.87
2018-09-24T14:05:40.651Z,79.07
2018-09-24T14:08:15.187Z,80.94
2018-09-24T14:10:49.975Z,84.77
2018-09-24T14:13:24.966Z,83.83
2018-09-24T14:15:59.556Z,84.29
2018-09-24T14:18:34.176Z,84.93
2018-09-24T14:21:09.413Z,83.68
2018-09-24T14:23:43.998Z,84.64
2018-09-24T14:26:18.751Z,84.49
2018-09-24T14:28:53.789Z,85.39
2018-09-24T14:31:28.316Z,83.88
2018-09-24T14:34:03.654Z,83.98
2018-09-24T14:36:38.576Z,83.80
2018-09-24T14:39:14.331Z,84.69
2018-09-24T14:41:49.140Z,83.20
2018-09-24T14:44:23.504Z,83.27
2018-09-24T14:46:58.167Z,80.92
2018-09-24T14:49:33.363Z,81.17
2018-09-24T14:52:08.546Z,81.92
2018-09-24T14:54:43.847Z,80.93
2018-09-24T14:57:19.401Z,79.80
2018-09-24T14:59:54.558Z,77.47
2018-09-24T15:02:29.154Z,75.79
2018-09-24T15:05:04.159Z,75.40
2018-09-24T15:07:38.774Z,74.41
2018-09-24T15:10:13.659Z,74.30
2018-09-24T15:12:48.706Z,72.94
2018-09-24T15:15:23.547Z,71.78
2018-09-24T15:17:59.271Z,72.72
2018-09-24T15:20:34.242Z,67.81
2018-09-24T15:23:09.958Z,69.05
2018-09-24T15:25:44.679Z,70.02
2018-09-24T15:28:20.119Z,68.21
2018-09-24T15:30:54.655Z,69.17
2018-09-24T15:33:29.691Z,67.75
2018-09-24T15:36:05.127Z,66.68
2018-09-24T15:38:39.806Z,67.21
2018-09-24T15:41:14.551Z,66.99
2018-09-24T15:43:49.568Z,69.90
2018-09-24T15:46:24.344Z,67.18
2018-09-24T15:48:58.808Z,66.67
2018-09-24T15:51:33.431Z,68.38
2018-09-24T15:54:08.218Z,67.20
2018-09-24T15:56:42.995Z,70.35
2018-09-24T15:59:17.782Z,69.67
2018-09-24T16:01:52.298Z,70.96
2018-09-24T16:04:27.492Z,70.57
2018-09-24T16:07:02.544Z,69.63
2018-09-24T16:09:37.714Z,69.93
2018-09-24T16:12:12.511Z,69.15
2018-09-24T16:14:47.219Z,69.35
2018-09-24T16:17:21.807Z,68.64
2018-09-24T16:19:56.816Z,66.77
2018-09-24T16:22:31.580Z,67.10
2018-09-24T16:25:06.272Z,67.41
2018-09-24T16:27:41.007Z,67.38
2018-09-24T16:30:15.534Z,66.69
2018-09-24T16:32:50.485Z,67.62
2018-09-24T16:35:25.266Z,69.90
2018-09-24T16:37:59.931Z,68.54
2018-09-24T16:40:34.642Z,69.50
2018-09-24T16:43:09.500Z,70.16
2018-09-24T16:45:44.188Z,72.77
2018-09-24T16:48:18.822Z,72.37
2018-09-24T16:50:58.058Z,70.16
2018-09-24T16:53:32.906Z,71.45
2018-09-24T16:56:07.963Z,73.04
2018-09-24T16:58:43.191Z,74.14
2018-09-24T17:01:17.904Z,74.78
2018-09-24T17:03:52.508Z,74.61
2018-09-24T17:06:27.478Z,74.76
2018-09-24T17:09:02.247Z,74.56
2018-09-24T17:11:37.622Z,75.28
2018-09-24T17:14:12.582Z,77.41
2018-09-24T17:16:48.193Z,76.37
2018-09-24T17:19:22.717Z,77.69
2018-09-24T17:21:57.651Z,79.30
2018-09-24T17:24:33.093Z,79.24
2018-09-24T17:27:08.059Z,79.55
2018-09-24T17:29:42.884Z,79.36
2018-09-24T17:32:17.696Z,81.62
2018-09-24T17:34:52.276Z,81.53
2018-09-24T17:37:27.165Z,81.85
2018-09-24T17:40:01.528Z,82.55
2018-09-24T17:42:36.244Z,82.60
2018-09-24T17:45:11.361Z,83.59
2018-09-24T17:47:46.257Z,83.80
2018-09-24T17:50:20.856Z,84.22
2018-09-24T17:52:55.661Z,84.85
2018-09-24T17:55:31.078Z,85.26
2018-09-24T17:58:07.110Z,85.03
2018-09-24T18:00:41.940Z,84.66
2018-09-24T18:03:17.133Z,86.09
2018-09-24T18:05:51.717Z,86.65
2018-09-24T18:08:27.008Z,86.07
2018-09-24T18:11:01.583Z,87.37
2018-09-24T18:13:36.160Z,88.14
2018-09-24T18:16:11.121Z,88.94
2018-09-24T18:18:45.461Z,88.76
2018-09-24T18:21:20.445Z,89.07
2018-09-24T18:23:55.163Z,88.85
2018-09-24T18:26:29.710Z,89.54
2018-09-24T18:29:04.897Z,89.78
2018-09-24T18:31:39.923Z,88.91
2018-09-24T18:34:15.015Z,88.93
2018-09-24T18:36:49.862Z,88.50
2018-09-24T18:39:24.958Z,89.97
2018-09-24T18:41:59.429Z,90.50
2018-09-24T18:44:34.631Z,91.14
2018-09-24T18:47:09.626Z,91.66
2018-09-24T18:49:44.602Z,90.91
2018-09-24T18:52:19.667Z,91.16
2018-09-24T18:54:54.296Z,90.71
2018-09-24T18:57:29.024Z,90.97
2018-09-24T19:00:03.794Z,91.80
2018-09-24T19:02:38.829Z,91.88
2018-09-24T19:05:13.609Z,91.42
2018-09-24T19:07:48.163Z,92.82
2018-09-24T19:10:23.298Z,94.26
2018-09-24T19:13:01.590Z,94.91
2018-09-24T19:15:36.249Z,95.34
2018-09-24T19:18:11.364Z,95.52
2018-09-24T19:20:45.979Z,96.16
2018-09-24T19:23:21.040Z,97.51
2018-09-24T19:25:56.044Z,97.09
2018-09-24T19:28:30.623Z,97.69
2018-09-24T19:31:05.927Z,98.00
2018-09-24T19:33:40.937Z,98.99
2018-09-24T19:36:16.001Z,99.21
2018-09-24T19:38:51.028Z,99.75
2018-09-24T19:41:26.019Z,100.00
2018-09-24T19:44:00.772Z,100.00
2018-09-24T19:46:35.599Z,100.00
2018-09-24T19:49:10.056Z,100.00
2018-09-24T19:51:44.803Z,100.00
2018-09-24T19:54:19.507Z,100.00
2018-09-24T19:56:55.134Z,100.00
2018-09-24T19:59:29.606Z,100.00
2018-09-24T20:02:04.585Z,100.00
2018-09-24T20:04:39.093Z,100.00
2018-09-24T20:07:14.155Z,100.00
2018-09-24T20:09:49.995Z,100.00
2018-09-24T20:12:24.779Z,100.00
2018-09-24T20:14:59.893Z,100.00
2018-09-24T20:17:35.324Z,100.00
2018-09-24T20:20:10.250Z,100.00
2018-09-24T20:22:45.384Z,100.00
2018-09-24T20:25:20.249Z,100.00
2018-09-24T20:27:55.144Z,100.00
2018-09-24T20:30:29.898Z,100.00
2018-09-24T20:33:04.480Z,100.00
2018-09-24T20:35:39.897Z,100.00
2018-09-24T20:38:14.534Z,100.00
2018-09-24T20:40:49.679Z,100.00
2018-09-24T20:43:24.236Z,100.00
2018-09-24T20:45:58.984Z,100.00
2018-09-24T20:48:33.970Z,100.00
2018-09-24T20:51:09.308Z,100.00
2018-09-24T20:53:43.870Z,100.00
2018-09-24T20:56:18.458Z,100.00
2018-09-24T20:58:54.277Z,100.00
2018-09-24T21:01:29.012Z,100.00
2018-09-24T21:04:03.575Z,100.00
2018-09-24T21:06:38.530Z,100.00
2018-09-24T21:09:14.238Z,100.00
2018-09-24T21:11:48.864Z,100.00
2018-09-24T21:14:23.426Z,100.00
2018-09-24T21:16:58.243Z,100.00
2018-09-24T21:19:33.018Z,100.00
2018-09-24T21:22:08.134Z,100.00
2018-09-24T21:24:43.028Z,100.00
2018-09-24T21:27:18.098Z,100.00
2018-09-24T21:29:53.163Z,100.00
2018-09-24T21:32:28.247Z,100.00
2018-09-24T21:35:03.282Z,100.00
2018-09-24T21:37:37.981Z,100.00
2018-09-24T21:40:13.435Z,100.00
2018-09-24T21:42:48.769Z,99.53
2018-09-24T21:45:23.820Z,98.52
2018-09-24T21:47:58.872Z,98.10
2018-09-24T21:50:33.688Z,97.92
2018-09-24T21:53:08.420Z,98.43
2018-09-24T21:55:44.175Z,99.91
2018-09-24T21:58:19.255Z,100.00
2018-09-24T22:00:54.531Z,100.00
2018-09-24T22:03:29.476Z,100.00
2018-09-24T22:06:04.449Z,99.85
2018-09-24T22:08:40.345Z,99.89
2018-09-24T22:11:15.139Z,100.00
2018-09-24T22:13:50.125Z,100.00
2018-09-24T22:16:24.701Z,100.00
2018-09-24T22:18:59.612Z,100.00
2018-09-24T22:21:34.204Z,100.00
2018-09-24T22:24:08.843Z,100.00
2018-09-24T22:26:43.553Z,100.00
2018-09-24T22:29:18.642Z,100.00
2018-09-24T22:31:53.195Z,100.00
2018-09-24T22:34:28.243Z,100.00
2018-09-24T22:37:04.254Z,100.00
2018-09-24T22:39:38.894Z,100.00
2018-09-24T22:42:14.039Z,100.00
2018-09-24T22:44:49.474Z,100.00
2018-09-24T22:47:24.803Z,100.00
2018-09-24T22:49:59.530Z,100.00
2018-09-24T22:52:34.275Z,100.00
2018-09-24T22:55:09.171Z,100.00
2018-09-24T22:57:44.031Z,100.00
2018-09-24T23:00:19.263Z,100.00
2018-09-24T23:02:54.115Z,100.00
2018-09-24T23:05:28.977Z,100.00
2018-09-24T23:08:03.595Z,100.00
2018-09-24T23:10:38.235Z,100.00
2018-09-24T23:13:12.722Z,100.00
2018-09-24T23:15:47.530Z,100.00
2018-09-24T23:18:22.315Z,100.00
2018-09-24T23:20:56.987Z,100.00
2018-09-24T23:23:31.751Z,100.00
2018-09-24T23:26:06.367Z,100.00
2018-09-24T23:28:42.187Z,100.00
2018-09-24T23:31:16.967Z,100.00
2018-09-24T23:33:52.002Z,100.00
2018-09-24T23:36:26.588Z,100.00
2018-09-24T23:39:01.472Z,100.00
2018-09-24T23:41:36.264Z,100.00
2018-09-24T23:44:10.863Z,100.00
2018-09-24T23:46:45.566Z,100.00
2018-09-24T23:49:20.962Z,100.00
2018-09-24T23:51:55.701Z,100.00
2018-09-24T23:54:30.555Z,100.00
2018-09-24T23:57:05.290Z,100.00
2018-09-24T23:59:40.106Z,100.00
